Time;durP1;ratioP1;P1;durP2;ratioP2;P2;SDS_P1;SDS_P2;PMS_P1;PMS_P2;Temp;Humidity;BMP_temperature;BMP_pressure;BME280_temperature;BME280_humidity;BME280_pressure;Samples;Min_cycle;Max_cycle;Signal;HPM_P1;HPM_P2
2021/03/22 00:01:07;;;;;;;29.23;18.62;;;;;;;1.46;60.73;99553.89;1815329;77;21120;-46
2021/03/22 00:03:36;;;;;;;31.12;18.65;;;;;;;1.50;60.65;99556.31;1813834;77;22562;-46
2021/03/22 00:06:05;;;;;;;29.20;16.62;;;;;;;1.51;60.59;99558.82;1814395;77;21153;-46
2021/03/22 00:08:33;;;;;;;30.82;17.32;;;;;;;1.52;60.55;99560.50;1815989;77;21325;-46
2021/03/22 00:11:02;;;;;;;32.30;17.30;;;;;;;1.49;60.53;99558.06;1815795;77;20959;-47
2021/03/22 00:13:30;;;;;;;31.00;17.67;;;;;;;1.41;60.67;99555.06;1815790;77;21117;-46
2021/03/22 00:16:06;;;;;;;29.67;17.12;;;;;;;1.36;60.89;99550.58;1812999;77;21192;-46
2021/03/22 00:18:37;;;;;;;31.80;17.90;;;;;;;1.31;61.03;99546.47;1779893;78;21009;-45
2021/03/22 00:21:06;;;;;;;30.10;16.82;;;;;;;1.27;61.19;99543.66;1779675;79;21109;-45
2021/03/22 00:23:35;;;;;;;30.05;16.95;;;;;;;1.24;61.23;99537.31;1779606;78;22140;-45
2021/03/22 00:26:05;;;;;;;29.18;16.82;;;;;;;1.21;61.36;99532.75;1779660;80;21481;-45
2021/03/22 00:28:40;;;;;;;29.77;16.75;;;;;;;1.17;61.44;99529.47;1780788;78;20995;-46
2021/03/22 00:31:13;;;;;;;31.45;17.65;;;;;;;1.13;61.42;99533.17;1773731;80;21012;-46
2021/03/22 00:33:41;;;;;;;32.33;18.32;;;;;;;1.09;61.49;99536.43;1777258;78;21391;-46
2021/03/22 00:36:10;;;;;;;32.53;17.65;;;;;;;1.05;61.55;99533.63;1776825;79;21158;-46
2021/03/22 00:38:38;;;;;;;32.33;17.27;;;;;;;1.01;61.73;99535.58;1778287;78;21388;-46
2021/03/22 00:41:06;;;;;;;36.23;19.52;;;;;;;0.97;61.87;99535.81;1780067;78;22342;-46
2021/03/22 00:43:35;;;;;;;34.53;18.70;;;;;;;0.98;62.02;99525.77;1780143;78;21229;-46
2021/03/22 00:46:05;;;;;;;34.78;18.48;;;;;;;1.01;61.98;99528.20;1768277;79;21574;-46
2021/03/22 00:48:34;;;;;;;32.08;19.35;;;;;;;1.02;61.89;99532.05;1762288;79;22009;-46
2021/03/22 00:51:06;;;;;;;36.05;19.37;;;;;;;1.05;61.86;99530.19;1769599;79;20983;-46
2021/03/22 00:53:35;;;;;;;31.73;17.92;;;;;;;1.05;61.75;99531.02;1776898;78;21949;-46
2021/03/22 00:56:04;;;;;;;33.58;19.05;;;;;;;1.05;61.75;99523.67;1784296;78;21954;-46
2021/03/22 00:58:32;;;;;;;29.23;16.02;;;;;;;1.05;61.77;99526.28;1788349;78;21164;-46
2021/03/22 01:01:01;;;;;;;30.20;17.25;;;;;;;1.03;61.71;99522.00;1756043;79;21104;-46
2021/03/22 01:03:32;;;;;;;34.35;18.70;;;;;;;0.98;61.75;99522.72;1781717;78;21416;-46
2021/03/22 01:06:01;;;;;;;32.28;19.20;;;;;;;0.88;61.92;99526.77;1784457;78;22736;-46
2021/03/22 01:08:31;;;;;;;29.80;16.95;;;;;;;0.76;62.27;99517.84;1782951;78;22123;-46
2021/03/22 01:11:09;;;;;;;31.60;18.37;;;;;;;0.69;62.61;99516.06;1784929;78;21127;-46
2021/03/22 01:13:42;;;;;;;31.93;18.35;;;;;;;0.64;62.95;99518.08;1786128;78;21454;-46
2021/03/22 01:16:24;;;;;;;37.45;20.20;;;;;;;0.64;63.23;99516.78;1805796;76;23191;-46
2021/03/22 01:18:56;;;;;;;35.13;19.95;;;;;;;0.63;63.48;99510.33;1776900;77;21176;-46
2021/03/22 01:21:41;;;;;;;35.20;19.62;;;;;;;0.71;63.49;99515.96;1774037;77;21802;-46
2021/03/22 01:24:11;;;;;;;34.60;19.87;;;;;;;0.80;63.42;99512.84;1772011;79;21684;-46
2021/03/22 01:26:39;;;;;;;33.53;19.17;;;;;;;0.90;63.35;99508.42;1775771;79;21760;-46
2021/03/22 01:29:14;;;;;;;35.43;19.52;;;;;;;0.96;63.22;99506.33;1774007;77;22466;-46
2021/03/22 01:31:44;;;;;;;30.25;17.25;;;;;;;1.03;63.13;99514.63;1776882;77;21189;-46
2021/03/22 01:34:13;;;;;;;33.83;18.95;;;;;;;1.08;62.95;99507.83;1776534;77;22082;-46
2021/03/22 01:36:41;;;;;;;30.52;17.15;;;;;;;1.06;62.75;99516.23;1764899;79;21658;-46
2021/03/22 01:39:12;;;;;;;30.40;17.75;;;;;;;0.99;62.88;99513.12;1749068;79;21055;-47
2021/03/22 01:42:01;;;;;;;34.85;19.37;;;;;;;0.93;63.05;99519.53;1743039;79;21776;-46
2021/03/22 01:44:39;;;;;;;35.55;20.40;;;;;;;0.88;63.28;99516.34;1719742;80;21609;-46
2021/03/22 01:47:13;;;;;;;33.08;19.15;;;;;;;0.85;63.52;99521.72;1733667;81;22151;-47
2021/03/22 01:50:10;;;;;;;37.48;19.55;;;;;;;0.84;63.67;99514.83;1785872;77;21148;-47
2021/03/22 01:52:41;;;;;;;27.80;17.02;;;;;;;0.83;63.75;99520.49;1784514;77;20971;-47
2021/03/22 01:55:12;;;;;;;30.02;17.27;;;;;;;0.83;63.93;99522.27;1776606;77;22020;-46
2021/03/22 01:57:44;;;;;;;29.95;16.65;;;;;;;0.80;64.05;99515.45;1788910;79;21531;-46
2021/03/22 02:00:32;;;;;;;35.23;18.77;;;;;;;0.80;64.09;99515.93;1774208;79;22024;-46
2021/03/22 02:03:16;;;;;;;32.28;18.20;;;;;;;0.80;64.19;99513.33;1767465;79;21145;-47
2021/03/22 02:05:48;;;;;;;36.95;19.92;;;;;;;0.79;64.26;99515.55;1773701;80;21631;-46
2021/03/22 02:08:39;;;;;;;33.45;18.95;;;;;;;0.81;64.45;99517.61;1771567;80;20982;-46
2021/03/22 02:11:24;;;;;;;30.85;18.75;;;;;;;0.91;64.42;99508.36;1772368;80;21454;-47
2021/03/22 02:13:57;;;;;;;33.70;19.32;;;;;;;0.99;64.27;99515.28;1773094;80;21374;-46
2021/03/22 02:17:02;;;;;;;36.25;19.48;;;;;;;1.10;64.08;99512.50;1701007;82;21166;-47
2021/03/22 02:20:14;;;;;;;32.50;18.23;;;;;;;1.15;63.84;99514.38;1652970;82;21986;-46
2021/03/22 02:22:56;;;;;;;30.92;18.52;;;;;;;1.18;63.56;99513.75;1713270;81;21730;-46
2021/03/22 02:25:48;;;;;;;31.33;18.40;;;;;;;1.23;63.49;99506.95;1752022;79;21837;-47
2021/03/22 02:29:13;;;;;;;40.08;19.80;;;;;;;1.25;63.26;99506.41;1747749;81;21230;-46
2021/03/22 02:32:13;;;;;;;30.62;17.92;;;;;;;1.20;63.25;99504.52;1737149;80;21144;-46
2021/03/22 02:35:08;;;;;;;31.52;18.57;;;;;;;1.10;63.37;99491.64;1700638;82;21436;-49
2021/03/22 02:37:43;;;;;;;33.33;18.23;;;;;;;1.04;63.50;99491.55;1676970;83;21142;-47
2021/03/22 02:40:34;;;;;;;29.50;17.60;;;;;;;0.99;63.54;99486.61;1752852;79;21637;-46
2021/03/22 02:43:03;;;;;;;31.23;16.95;;;;;;;0.96;63.77;99486.78;1752671;81;21966;-46
2021/03/22 02:45:35;;;;;;;32.15;18.80;;;;;;;0.93;63.80;99492.17;1734191;81;21024;-47
2021/03/22 02:48:04;;;;;;;32.50;17.60;;;;;;;0.91;63.95;99488.81;1752955;80;20992;-46
2021/03/22 02:50:36;;;;;;;32.05;18.40;;;;;;;0.90;64.00;99496.25;1753902;80;20933;-46
2021/03/22 02:53:32;;;;;;;32.33;18.92;;;;;;;0.89;64.08;99488.06;1752037;81;21445;-46
2021/03/22 02:56:09;;;;;;;31.70;17.45;;;;;;;0.88;64.05;99485.90;1750299;79;21382;-46
2021/03/22 02:58:48;;;;;;;34.53;18.45;;;;;;;0.87;64.13;99482.92;1751002;80;20995;-46
2021/03/22 03:01:44;;;;;;;36.35;19.82;;;;;;;0.87;64.32;99479.01;1755151;79;21436;-46
2021/03/22 03:04:15;;;;;;;33.28;18.90;;;;;;;0.96;64.33;99482.02;1753532;81;21690;-47
2021/03/22 03:06:52;;;;;;;34.23;18.37;;;;;;;1.05;64.22;99480.67;1749677;81;21145;-47
2021/03/22 03:09:26;;;;;;;35.38;19.95;;;;;;;1.13;64.11;99479.73;1751343;81;21699;-46
2021/03/22 03:11:56;;;;;;;35.92;19.45;;;;;;;1.21;63.86;99479.31;1751767;80;21420;-47
2021/03/22 03:14:24;;;;;;;34.13;19.25;;;;;;;1.25;63.82;99476.42;1749323;81;21106;-47
2021/03/22 03:16:54;;;;;;;34.13;18.92;;;;;;;1.32;63.80;99472.53;1750351;80;21106;-47
2021/03/22 03:19:23;;;;;;;34.53;19.00;;;;;;;1.38;63.60;99470.05;1751334;79;22047;-47
2021/03/22 03:22:02;;;;;;;31.73;18.37;;;;;;;1.44;63.35;99463.61;1829725;76;22376;-47
2021/03/22 03:24:30;;;;;;;29.67;18.50;;;;;;;1.35;63.30;99466.76;1801040;78;22008;-47
2021/03/22 03:26:58;;;;;;;33.60;18.02;;;;;;;1.26;63.41;99475.97;1805377;78;21902;-47
2021/03/22 03:29:26;;;;;;;31.45;18.92;;;;;;;1.17;63.67;99472.11;1803139;78;21582;-47
2021/03/22 03:31:58;;;;;;;34.40;18.92;;;;;;;1.10;63.97;99464.27;1805377;78;21510;-47
2021/03/22 03:34:26;;;;;;;30.57;17.20;;;;;;;1.03;64.20;99464.66;1801747;78;21499;-47
2021/03/22 03:36:57;;;;;;;31.60;18.65;;;;;;;1.00;64.33;99461.38;1793580;78;22007;-47
2021/03/22 03:39:26;;;;;;;32.93;17.95;;;;;;;0.95;64.45;99449.92;1797182;78;21145;-47
2021/03/22 03:41:54;;;;;;;31.35;18.52;;;;;;;0.92;64.51;99454.01;1776036;78;21145;-47
2021/03/22 03:44:22;;;;;;;34.10;18.85;;;;;;;0.91;64.60;99464.05;1743605;81;21007;-47
2021/03/22 03:46:52;;;;;;;35.33;18.62;;;;;;;0.89;64.63;99451.58;1744337;80;21533;-47
2021/03/22 03:49:22;;;;;;;30.70;17.55;;;;;;;0.87;64.77;99447.74;1738593;80;21117;-47
2021/03/22 03:51:51;;;;;;;34.18;19.55;;;;;;;0.86;64.86;99449.97;1738395;81;22025;-47
2021/03/22 03:54:20;;;;;;;36.20;19.80;;;;;;;0.88;64.99;99452.03;1739571;80;21120;-47
2021/03/22 03:56:49;;;;;;;32.83;19.73;;;;;;;0.95;65.01;99447.32;1728489;80;21162;-47
2021/03/22 03:59:17;;;;;;;32.98;18.95;;;;;;;1.06;64.88;99447.17;1756715;80;21466;-47
2021/03/22 04:01:45;;;;;;;33.70;19.95;;;;;;;1.14;64.68;99441.02;1720293;81;21476;-47
2021/03/22 04:04:13;;;;;;;33.13;19.15;;;;;;;1.25;64.54;99442.53;1738353;81;21410;-47
2021/03/22 04:06:42;;;;;;;32.70;19.17;;;;;;;1.35;64.29;99443.29;1737042;81;21152;-47
2021/03/22 04:09:12;;;;;;;32.40;18.32;;;;;;;1.43;64.01;99445.84;1725880;81;21125;-47
2021/03/22 04:11:45;;;;;;;34.48;18.20;;;;;;;1.51;63.84;99445.84;1735120;81;21878;-47
2021/03/22 04:14:26;;;;;;;26.68;15.50;;;;;;;1.57;63.54;99433.26;1750021;80;21963;-47
2021/03/22 04:16:56;;;;;;;28.93;17.87;;;;;;;1.53;63.35;99439.59;1718203;81;21608;-47
2021/03/22 04:19:24;;;;;;;27.42;16.02;;;;;;;1.43;63.36;99441.92;1718395;81;21670;-47
2021/03/22 04:21:53;;;;;;;31.25;17.17;;;;;;;1.34;63.55;99437.25;1704419;81;21618;-47
2021/03/22 04:24:22;;;;;;;30.48;16.57;;;;;;;1.24;63.88;99435.64;1718009;82;21612;-47
2021/03/22 04:26:51;;;;;;;27.20;16.07;;;;;;;1.15;64.17;99432.27;1704840;82;21122;-47
2021/03/22 04:29:20;;;;;;;28.52;17.67;;;;;;;1.12;64.39;99436.36;1691780;83;21641;-47
2021/03/22 04:31:48;;;;;;;29.15;16.95;;;;;;;1.08;64.38;99434.86;1693774;83;21014;-47
2021/03/22 04:34:16;;;;;;;30.45;18.12;;;;;;;1.08;64.31;99430.95;1714870;82;21597;-47
2021/03/22 04:36:46;;;;;;;31.50;17.95;;;;;;;1.09;64.25;99440.44;1718843;82;21989;-47
2021/03/22 04:39:14;;;;;;;32.05;17.65;;;;;;;1.09;64.42;99441.30;1719060;82;21527;-47
2021/03/22 04:41:42;;;;;;;33.42;19.40;;;;;;;1.13;64.34;99439.33;1716690;82;22998;-47
2021/03/22 04:44:11;;;;;;;32.50;19.25;;;;;;;1.16;64.42;99441.77;1716826;82;21154;-47
2021/03/22 04:46:40;;;;;;;33.18;18.27;;;;;;;1.26;64.53;99440.30;1717098;82;22216;-48
2021/03/22 04:49:08;;;;;;;39.38;20.52;;;;;;;1.41;64.56;99445.53;1719711;82;22064;-47
2021/03/22 04:51:37;;;;;;;37.70;20.77;;;;;;;1.55;64.33;99449.95;1716706;82;21921;-47
2021/03/22 04:54:05;;;;;;;33.50;19.65;;;;;;;1.65;64.12;99452.83;1693030;83;21218;-47
2021/03/22 04:56:33;;;;;;;32.50;20.02;;;;;;;1.74;63.85;99454.88;1705335;83;22165;-47
2021/03/22 04:59:02;;;;;;;37.10;20.72;;;;;;;1.82;63.56;99455.25;1695898;83;21517;-47
2021/03/22 05:01:29;;;;;;;34.27;19.95;;;;;;;1.90;63.29;99458.69;1714291;81;21641;-47
2021/03/22 05:03:58;;;;;;;34.38;20.32;;;;;;;1.95;63.11;99450.11;1710126;81;21926;-47
2021/03/22 05:06:27;;;;;;;32.40;19.37;;;;;;;1.98;62.59;99453.02;1682644;83;21200;-47
2021/03/22 05:08:58;;;;;;;31.25;18.67;;;;;;;1.93;62.44;99452.45;1688100;84;21161;-47
2021/03/22 05:11:27;;;;;;;33.23;19.12;;;;;;;1.88;62.43;99454.88;1697943;82;21176;-47
2021/03/22 05:13:56;;;;;;;33.65;20.00;;;;;;;1.84;62.39;99459.91;1692794;82;21154;-47
2021/03/22 05:16:25;;;;;;;30.55;18.32;;;;;;;1.79;62.54;99455.44;1697647;82;21169;-47
2021/03/22 05:18:53;;;;;;;32.15;19.62;;;;;;;1.77;62.47;99465.13;1696331;82;21189;-47
2021/03/22 05:21:23;;;;;;;32.45;20.12;;;;;;;1.73;62.52;99468.86;1707295;82;21145;-47
2021/03/22 05:23:52;;;;;;;32.73;19.00;;;;;;;1.72;62.66;99473.22;1700942;82;21181;-47
2021/03/22 05:26:21;;;;;;;35.38;20.23;;;;;;;1.71;62.69;99467.63;1712482;82;21168;-47
2021/03/22 05:28:49;;;;;;;34.80;18.87;;;;;;;1.72;62.53;99472.40;1704710;82;21109;-47
2021/03/22 05:31:17;;;;;;;36.35;19.70;;;;;;;1.69;62.59;99468.67;1711520;82;21340;-47
2021/03/22 05:33:45;;;;;;;33.60;20.35;;;;;;;1.73;62.78;99474.08;1705189;82;21450;-47
2021/03/22 05:36:13;;;;;;;33.18;19.05;;;;;;;1.79;62.71;99471.55;1700409;82;21519;-47
2021/03/22 05:38:42;;;;;;;34.43;19.77;;;;;;;1.87;62.63;99472.78;1702797;82;21142;-47
2021/03/22 05:41:17;;;;;;;33.10;18.95;;;;;;;1.95;62.57;99474.08;1708348;82;21457;-47
2021/03/22 05:43:53;;;;;;;32.08;17.40;;;;;;;2.04;62.59;99477.44;1681823;82;22328;-47
2021/03/22 05:46:54;;;;;;;31.27;18.20;;;;;;;2.14;62.38;99475.08;1719042;80;21397;-47
2021/03/22 05:49:40;;;;;;;32.33;17.00;;;;;;;2.20;62.11;99476.83;1685637;83;21181;-47
2021/03/22 05:52:26;;;;;;;32.08;17.50;;;;;;;2.26;62.13;99476.94;1704717;82;21134;-47
2021/03/22 05:55:00;;;;;;;25.05;15.05;;;;;;;2.29;61.84;99468.05;1682650;83;21587;-47
2021/03/22 05:57:53;;;;;;;29.92;16.07;;;;;;;2.28;61.92;99474.20;1680523;83;21640;-47
2021/03/22 06:00:28;;;;;;;28.35;15.53;;;;;;;2.28;62.17;99475.52;1692721;81;22102;-46
2021/03/22 06:03:16;;;;;;;29.98;17.12;;;;;;;2.24;62.44;99476.64;1701782;82;21640;-47
2021/03/22 06:05:57;;;;;;;29.98;16.95;;;;;;;2.21;62.80;99469.37;1694686;82;21422;-47
2021/03/22 06:08:38;;;;;;;31.27;16.73;;;;;;;2.23;63.43;99469.73;1701391;82;21592;-47
2021/03/22 06:11:33;;;;;;;29.52;16.37;;;;;;;2.22;63.74;99470.22;1678169;82;21519;-47
2021/03/22 06:14:31;;;;;;;33.50;18.77;;;;;;;2.23;64.17;99474.51;1703148;82;21181;-46
2021/03/22 06:17:09;;;;;;;25.48;16.00;;;;;;;2.24;64.53;99476.19;1702198;82;21129;-47
2021/03/22 06:19:50;;;;;;;27.25;16.30;;;;;;;2.32;65.21;99478.31;1702522;82;21665;-47
2021/03/22 06:22:25;;;;;;;29.92;16.67;;;;;;;2.45;65.46;99473.98;1730455;80;22101;-47
2021/03/22 06:24:53;;;;;;;30.08;16.95;;;;;;;2.57;65.48;99476.77;1724394;81;21519;-47
2021/03/22 06:27:22;;;;;;;27.32;16.42;;;;;;;2.68;65.68;99480.84;1729131;81;22104;-47
2021/03/22 06:29:52;;;;;;;28.80;17.77;;;;;;;2.72;65.47;99481.01;1732661;81;21608;-48
2021/03/22 06:32:33;;;;;;;31.52;19.02;;;;;;;2.73;65.64;99481.38;1747963;80;22241;-47
2021/03/22 06:35:05;;;;;;;30.75;18.23;;;;;;;2.73;66.07;99490.53;1745315;80;21442;-48
2021/03/22 06:37:35;;;;;;;28.90;18.20;;;;;;;2.76;66.11;99493.40;1730773;80;21413;-47
2021/03/22 06:40:27;;;;;;;31.33;17.77;;;;;;;2.73;66.19;99493.59;1745758;80;21648;-47
2021/03/22 06:43:11;;;;;;;29.95;16.90;;;;;;;2.65;66.62;99491.48;1746743;80;27970;-47
2021/03/22 06:45:42;;;;;;;31.48;17.67;;;;;;;2.59;67.23;99491.88;1735705;80;20975;-47
2021/03/22 06:48:32;;;;;;;31.33;18.82;;;;;;;2.48;67.57;99492.56;1746626;80;21211;-47
2021/03/22 06:51:11;;;;;;;30.70;18.75;;;;;;;2.39;68.09;99495.27;1744181;81;21287;-48
2021/03/22 06:53:43;;;;;;;33.80;19.70;;;;;;;2.30;69.00;99499.31;1743209;80;21118;-47
2021/03/22 06:56:26;;;;;;;31.37;19.27;;;;;;;2.23;69.60;99499.77;1750927;80;22235;-47
2021/03/22 06:59:14;;;;;;;35.43;19.62;;;;;;;2.16;70.00;99498.02;1744555;80;20999;-47
2021/03/22 07:01:46;;;;;;;36.88;20.20;;;;;;;2.13;70.77;99500.34;1731630;80;21578;-47
2021/03/22 07:04:32;;;;;;;32.10;19.37;;;;;;;2.19;71.23;99505.18;1731068;80;22098;-47
2021/03/22 07:07:10;;;;;;;30.30;19.48;;;;;;;2.29;71.31;99502.00;1730550;80;21168;-47
2021/03/22 07:09:44;;;;;;;30.48;17.32;;;;;;;2.39;71.65;99502.28;1731825;81;21504;-47
2021/03/22 07:12:38;;;;;;;32.75;20.00;;;;;;;2.53;71.71;99507.94;1731623;80;21585;-47
2021/03/22 07:15:31;;;;;;;29.45;18.52;;;;;;;2.59;71.35;99511.02;1732025;80;21129;-46
2021/03/22 07:18:14;;;;;;;29.20;18.80;;;;;;;2.65;71.49;99517.13;1730857;80;21203;-47
2021/03/22 07:21:01;;;;;;;32.20;17.50;;;;;;;2.70;71.58;99514.69;1732472;80;22151;-47
2021/03/22 07:23:37;;;;;;;29.65;17.67;;;;;;;2.71;71.48;99517.22;1739267;81;21140;-47
2021/03/22 07:26:32;;;;;;;33.75;19.62;;;;;;;2.68;71.36;99521.34;1742466;80;21643;-47
2021/03/22 07:29:12;;;;;;;30.75;17.77;;;;;;;2.56;71.67;99516.89;1708841;81;21121;-47
2021/03/22 07:31:57;;;;;;;27.85;18.05;;;;;;;2.43;72.29;99516.34;1744237;80;21388;-46
2021/03/22 07:35:05;;;;;;;27.80;17.80;;;;;;;2.34;72.63;99515.16;1746254;80;21132;-47
2021/03/22 07:37:50;;;;;;;30.12;18.45;;;;;;;2.29;73.08;99518.53;1746740;80;21616;-47
2021/03/22 07:40:44;;;;;;;31.75;19.23;;;;;;;2.17;73.20;99516.67;1734682;81;21003;-47
2021/03/22 07:43:48;;;;;;;32.33;20.17;;;;;;;2.09;73.75;99513.69;1738577;81;21113;-48
2021/03/22 07:46:58;;;;;;;33.08;20.82;;;;;;;2.04;74.35;99517.90;1726964;81;21677;-47
2021/03/22 07:49:54;;;;;;;34.80;21.68;;;;;;;2.22;75.08;99518.53;1816751;75;22267;-47
2021/03/22 07:52:39;;;;;;;32.83;21.85;;;;;;;2.31;75.32;99513.19;1796368;77;21168;-47
2021/03/22 07:55:47;;;;;;;35.55;21.70;;;;;;;2.48;75.51;99509.06;1794179;77;21255;-46
2021/03/22 07:58:52;;;;;;;33.95;19.23;;;;;;;2.65;75.31;99517.61;1804760;77;21435;-47
2021/03/22 08:02:17;;;;;;;32.75;19.62;;;;;;;2.75;74.45;99517.85;1813778;77;21199;-46
2021/03/22 08:05:17;;;;;;;37.78;23.57;;;;;;;2.75;74.12;99521.32;1769992;79;21248;-47
2021/03/22 08:08:19;;;;;;;34.13;21.27;;;;;;;2.83;74.43;99518.69;1815553;76;21212;-47
2021/03/22 08:10:51;;;;;;;39.23;24.67;;;;;;;2.86;74.36;99522.41;1811278;76;21414;-47
2021/03/22 08:13:46;;;;;;;45.67;26.42;;;;;;;2.82;74.61;99524.37;1813788;77;21469;-47
2021/03/22 08:16:41;;;;;;;37.48;21.48;;;;;;;2.79;74.93;99524.11;1814723;77;21050;-46
2021/03/22 08:19:28;;;;;;;37.10;22.02;;;;;;;2.76;74.72;99526.06;1816214;77;21200;-47
2021/03/22 08:22:06;;;;;;;39.38;23.47;;;;;;;2.68;74.77;99523.09;1818304;77;21213;-47
2021/03/22 08:24:58;;;;;;;35.68;21.82;;;;;;;2.63;75.26;99523.41;1816829;76;21157;-47
2021/03/22 08:27:29;;;;;;;39.88;24.47;;;;;;;2.61;75.66;99522.66;1818216;77;21598;-47
2021/03/22 08:30:13;;;;;;;42.23;24.35;;;;;;;2.66;76.34;99521.91;1814771;77;20967;-47
2021/03/22 08:32:46;;;;;;;39.80;23.45;;;;;;;2.83;76.91;99523.92;1796402;77;21097;-46
2021/03/22 08:35:35;;;;;;;37.83;23.77;;;;;;;3.03;76.72;99522.17;1817578;77;21442;-46
2021/03/22 08:38:13;;;;;;;33.78;22.77;;;;;;;3.20;76.36;99525.43;1820040;76;21381;-47
2021/03/22 08:40:49;;;;;;;33.35;21.25;;;;;;;3.39;75.45;99521.16;1816007;77;21565;-48
2021/03/22 08:43:56;;;;;;;37.45;22.02;;;;;;;3.49;74.96;99520.05;1800897;77;21125;-46
2021/03/22 08:46:48;;;;;;;32.88;20.75;;;;;;;3.63;74.26;99512.61;1827065;77;21094;-47
2021/03/22 08:49:31;;;;;;;29.80;19.30;;;;;;;3.76;73.61;99511.29;1821801;77;21994;-48
2021/03/22 08:52:01;;;;;;;34.00;21.40;;;;;;;3.82;72.93;99511.69;1777789;78;21515;-47
2021/03/22 08:54:33;;;;;;;35.60;21.40;;;;;;;3.92;72.58;99515.84;1737345;79;21415;-47
2021/03/22 08:57:24;;;;;;;33.45;21.37;;;;;;;3.97;71.88;99517.68;1789188;78;21126;-47
2021/03/22 09:00:28;;;;;;;;;;;;;;;4.05;71.27;99517.62;1788326;78;21003;-47
2021/03/22 09:03:17;;;;;;;31.42;19.92;;;;;;;4.09;70.65;99519.09;1804043;77;20455;-46
2021/03/22 09:06:15;;;;;;;37.10;20.90;;;;;;;4.06;70.43;99517.98;1753200;79;21291;-47
2021/03/22 09:08:57;;;;;;;32.28;20.32;;;;;;;4.06;68.98;99525.84;1770069;78;21145;-47
2021/03/22 09:11:45;;;;;;;32.45;19.45;;;;;;;4.05;69.06;99526.78;1792295;77;22094;-46
2021/03/22 09:14:31;;;;;;;32.45;19.90;;;;;;;4.08;69.07;99526.09;1779209;78;21145;-46
2021/03/22 09:17:00;;;;;;;33.65;19.02;;;;;;;4.16;69.23;99524.27;1776536;78;21596;-47
2021/03/22 09:19:44;;;;;;;31.07;21.12;;;;;;;4.22;69.51;99522.98;1819578;77;21596;-47
2021/03/22 09:22:29;;;;;;;32.50;20.37;;;;;;;4.24;68.99;99526.34;1765015;78;21003;-47
2021/03/22 09:24:58;;;;;;;37.98;21.60;;;;;;;4.26;69.06;99520.52;1794482;78;21612;-47
2021/03/22 09:27:31;;;;;;;34.92;22.13;;;;;;;4.32;69.43;99521.86;1788786;78;21624;-47
2021/03/22 09:30:11;;;;;;;32.35;21.80;;;;;;;4.40;69.70;99523.01;1791288;77;21133;-46
2021/03/22 09:32:42;;;;;;;28.52;18.75;;;;;;;4.50;69.43;99522.36;1791194;78;23098;-46
2021/03/22 09:35:23;;;;;;;33.30;20.97;;;;;;;4.56;68.62;99525.37;1787768;78;21112;-47
2021/03/22 09:38:02;;;;;;;31.73;20.95;;;;;;;4.50;68.40;99522.36;1791372;78;21121;-47
2021/03/22 09:40:36;;;;;;;31.82;21.02;;;;;;;4.42;68.70;99521.12;1767608;80;21097;-46
2021/03/22 09:43:23;;;;;;;29.55;19.80;;;;;;;4.40;69.12;99525.62;1752747;78;22107;-47
2021/03/22 09:46:03;;;;;;;33.98;19.98;;;;;;;4.39;68.36;99520.02;1821475;77;21196;-46
2021/03/22 09:48:36;;;;;;;34.83;21.40;;;;;;;4.32;68.09;99521.86;1776985;78;21140;-49
2021/03/22 09:51:10;;;;;;;33.75;21.97;;;;;;;4.20;68.03;99524.88;1811260;77;21346;-47
2021/03/22 09:53:56;;;;;;;34.83;22.90;;;;;;;4.07;68.46;99531.45;1805374;77;21605;-46
2021/03/22 09:56:31;;;;;;;33.98;22.67;;;;;;;3.99;68.62;99534.58;1807762;77;20976;-47
2021/03/22 09:59:38;;;;;;;35.08;22.42;;;;;;;4.05;69.52;99533.33;1794798;77;22504;-46
2021/03/22 10:02:50;;;;;;;32.80;20.90;;;;;;;4.16;69.51;99531.27;1812414;77;20991;-47
2021/03/22 10:05:33;;;;;;;32.33;21.62;;;;;;;4.20;69.42;99536.66;1756863;79;21622;-46
2021/03/22 10:08:13;;;;;;;31.25;21.75;;;;;;;4.18;68.95;99527.62;1774460;79;21131;-46
2021/03/22 10:10:59;;;;;;;32.05;21.70;;;;;;;4.17;68.75;99531.18;1751585;80;21099;-47
2021/03/22 10:13:36;;;;;;;32.25;21.07;;;;;;;4.16;68.71;99538.67;1741539;80;21933;-46
2021/03/22 10:16:21;;;;;;;35.15;21.93;;;;;;;4.12;68.73;99539.83;1740904;81;21170;-48
2021/03/22 10:18:54;;;;;;;32.70;19.77;;;;;;;4.08;68.41;99543.60;1746516;81;21438;-47
2021/03/22 10:24:57;;;;;;;31.50;20.62;;;;;;;3.91;69.10;99540.81;1810719;77;22342;-47
2021/03/22 10:27:33;;;;;;;28.60;18.77;;;;;;;3.77;69.06;99543.07;1786980;78;21335;-47
2021/03/22 10:30:19;;;;;;;29.12;18.80;;;;;;;3.67;69.17;99547.61;1783090;77;21236;-47
2021/03/22 10:33:03;;;;;;;30.45;19.52;;;;;;;3.61;69.39;99551.95;1772764;77;21540;-47
2021/03/22 10:35:48;;;;;;;33.78;20.02;;;;;;;3.56;69.67;99549.28;1760439;80;21605;-47
2021/03/22 10:38:27;;;;;;;32.33;20.95;;;;;;;3.50;69.84;99559.67;1765460;80;21524;-47
2021/03/22 10:40:55;;;;;;;32.80;21.37;;;;;;;3.49;69.96;99563.23;1732252;80;21118;-46
2021/03/22 10:43:36;;;;;;;31.60;19.65;;;;;;;3.52;69.94;99555.17;1766973;79;21355;-47
2021/03/22 10:46:24;;;;;;;31.20;19.55;;;;;;;3.56;69.85;99557.14;1718125;81;21091;-47
2021/03/22 10:49:25;;;;;;;29.42;18.10;;;;;;;3.62;69.92;99556.73;1756872;79;21234;-46
2021/03/22 10:51:56;;;;;;;29.40;18.80;;;;;;;3.65;69.65;99553.91;1756189;80;21644;-50
2021/03/22 10:54:44;;;;;;;29.67;18.65;;;;;;;3.66;69.67;99552.48;1754389;79;21442;-47
2021/03/22 10:57:28;;;;;;;26.68;17.60;;;;;;;3.69;69.47;99554.06;1750397;80;21291;-47
2021/03/22 11:00:33;;;;;;;27.02;16.97;;;;;;;3.71;69.22;99548.23;1747638;80;21010;-47
2021/03/22 11:03:03;;;;;;;29.63;18.50;;;;;;;3.68;69.04;99550.59;1741577;80;21562;-47
2021/03/22 11:05:38;;;;;;;29.60;19.95;;;;;;;3.63;69.37;99547.45;1745855;80;21627;-48
2021/03/22 11:08:30;;;;;;;27.30;17.65;;;;;;;3.56;69.22;99546.67;1747837;80;21006;-47
2021/03/22 11:11:16;;;;;;;26.57;18.65;;;;;;;3.50;69.17;99549.20;1746889;80;21466;-47
2021/03/22 11:13:48;;;;;;;24.10;16.50;;;;;;;3.45;69.37;99536.90;1746476;80;21149;-47
2021/03/22 11:16:27;;;;;;;29.60;17.82;;;;;;;3.46;69.63;99540.73;1748591;80;21235;-47
2021/03/22 11:18:55;;;;;;;27.93;18.62;;;;;;;3.49;69.68;99540.98;1749860;80;21129;-47
2021/03/22 11:21:25;;;;;;;30.62;20.15;;;;;;;3.53;69.70;99538.53;1744887;80;21137;-47
2021/03/22 11:23:56;;;;;;;29.05;18.75;;;;;;;3.62;69.78;99539.72;1746934;80;21363;-47
2021/03/22 11:26:31;;;;;;;24.63;16.82;;;;;;;3.74;69.81;99545.41;1746730;80;21453;-47
2021/03/22 11:29:20;;;;;;;27.05;16.93;;;;;;;3.87;69.43;99540.20;1748643;80;21561;-47
2021/03/22 11:31:49;;;;;;;26.33;16.97;;;;;;;3.96;68.93;99535.64;1747186;81;21137;-47
2021/03/22 11:34:33;;;;;;;25.02;16.48;;;;;;;4.03;68.32;99538.66;1745661;81;21114;-46
2021/03/22 11:37:16;;;;;;;23.22;16.23;;;;;;;4.09;68.08;99538.73;1749569;80;21461;-47
2021/03/22 11:39:44;;;;;;;24.95;17.35;;;;;;;4.14;67.70;99536.14;1734950;80;22162;-47
2021/03/22 11:42:35;;;;;;;26.37;16.60;;;;;;;4.19;67.36;99538.46;1737358;80;21023;-46
2021/03/22 11:45:29;;;;;;;26.33;18.60;;;;;;;4.28;67.33;99540.90;1747206;80;21589;-46
2021/03/22 11:48:26;;;;;;;27.27;19.00;;;;;;;4.41;66.76;99542.17;1837980;76;23395;-46
2021/03/22 11:51:02;;;;;;;24.72;17.32;;;;;;;4.39;66.03;99542.75;1803881;77;21162;-47
2021/03/22 11:53:30;;;;;;;23.10;17.25;;;;;;;4.35;65.55;99542.60;1801351;77;21291;-46
2021/03/22 11:56:20;;;;;;;21.77;15.15;;;;;;;4.29;65.28;99542.09;1772766;78;21253;-47
2021/03/22 11:58:49;;;;;;;23.80;16.27;;;;;;;4.24;65.03;99544.67;1721613;81;21189;-47
2021/03/22 12:01:24;;;;;;;22.73;16.27;;;;;;;4.18;65.19;99547.27;1728777;81;21699;-46
2021/03/22 12:04:09;;;;;;;23.15;16.48;;;;;;;4.16;65.45;99547.84;1731612;81;21220;-46
2021/03/22 12:07:05;;;;;;;22.27;14.95;;;;;;;4.13;65.66;99549.36;1729108;81;21613;-47
2021/03/22 12:09:34;;;;;;;23.40;16.07;;;;;;;4.10;65.55;99545.16;1734797;81;20995;-48
2021/03/22 12:12:13;;;;;;;20.62;14.85;;;;;;;4.11;65.56;99549.94;1728929;81;21441;-47
2021/03/22 12:14:41;;;;;;;22.42;15.13;;;;;;;4.10;65.47;99550.39;1727771;81;21153;-47
2021/03/22 12:17:20;;;;;;;22.22;15.83;;;;;;;4.08;65.42;99550.15;1727825;81;21389;-47
2021/03/22 12:19:49;;;;;;;21.97;14.98;;;;;;;4.09;65.45;99549.20;1723130;81;21433;-47
2021/03/22 12:22:18;;;;;;;23.50;15.80;;;;;;;4.12;65.52;99551.61;1713021;82;21034;-46